Time;durP1;ratioP1;P1;durP2;ratioP2;P2;SDS_P1;SDS_P2;PMS_P1;PMS_P2;Temp;Humidity;BMP_temperature;BMP_pressure;BME280_temperature;BME280_humidity;BME280_pressure;Samples;Min_cycle;Max_cycle;Signal;HPM_P1;HPM_P2
2023/01/20 00:01:52;;;;;;;;;;;;;;;16.49;49.32;100373.88;4961272;28;2353;-46
2023/01/20 00:04:20;;;;;;;;;;;;;;;16.32;48.08;100369.56;4957597;28;1077;-43
2023/01/20 00:06:45;;;;;;;;;;;;;;;16.79;49.08;100374.78;4959958;28;1911;-44
2023/01/20 00:09:12;;;;;;;;;;;;;;;16.38;48.44;100373.94;4957446;28;1093;-43
2023/01/20 00:11:38;;;;;;;;;;;;;;;17.48;48.42;100381.16;4943055;28;1313;-46
2023/01/20 00:14:03;;;;;;;;;;;;;;;16.70;49.28;100375.38;4957382;28;1042;-45
2023/01/20 00:16:30;;;;;;;;;;;;;;;16.33;49.04;100371.22;4957249;28;1050;-42
2023/01/20 00:18:56;;;;;;;;;;;;;;;16.74;48.84;100379.19;4966476;28;1113;-40
2023/01/20 00:21:21;;;;;;;;;;;;;;;16.71;49.57;100382.53;4957425;28;1397;-44
2023/01/20 00:23:47;;;;;;;;;;;;;;;16.41;48.56;100378.84;4957205;28;1208;-40
2023/01/20 00:26:13;;;;;;;;;;;;;;;17.17;49.04;100361.38;4957186;28;1981;-40
2023/01/20 00:28:39;;;;;;;;;;;;;;;16.79;49.25;100372.88;4966000;28;1114;-47
2023/01/20 00:31:10;;;;;;;;;;;;;;;16.42;48.70;100361.28;4956949;28;2374;-39
2023/01/20 00:33:36;;;;;;;;;;;;;;;16.22;48.09;100364.13;4966623;28;1041;-42
2023/01/20 00:36:01;;;;;;;;;;;;;;;17.37;48.44;100354.88;4960080;28;1098;-44
2023/01/20 00:38:26;;;;;;;;;;;;;;;16.65;49.54;100356.22;4960932;28;1188;-42
2023/01/20 00:40:53;;;;;;;;;;;;;;;16.37;48.96;100355.81;4961378;28;995;-45
2023/01/20 00:43:18;;;;;;;;;;;;;;;16.25;47.98;100344.34;4970635;28;1180;-41
2023/01/20 00:45:44;;;;;;;;;;;;;;;17.47;48.19;100343.75;4960589;28;1898;-44
2023/01/20 00:48:09;;;;;;;;;;;;;;;16.49;49.25;100340.94;4960582;28;1042;-46
2023/01/20 00:50:35;;;;;;;;;;;;;;;16.33;48.33;100343.78;4960588;28;1114;-45
2023/01/20 00:53:00;;;;;;;;;;;;;;;16.65;48.78;100342.50;4961651;28;1165;-44
2023/01/20 00:55:25;;;;;;;;;;;;;;;16.95;49.29;100334.34;4963727;28;1074;-48
2023/01/20 00:57:51;;;;;;;;;;;;;;;16.48;48.93;100336.53;4960552;28;1204;-48
2023/01/20 01:00:17;;;;;;;;;;;;;;;16.31;48.01;100326.75;4960421;28;1230;-44
2023/01/20 01:02:42;;;;;;;;;;;;;;;16.72;49.29;100337.50;4964427;28;2632;-46
2023/01/20 01:05:08;;;;;;;;;;;;;;;16.37;48.93;100333.06;4961255;28;1902;-44
2023/01/20 01:07:33;;;;;;;;;;;;;;;17.15;48.84;100325.09;4970357;28;1069;-41
2023/01/20 01:09:59;;;;;;;;;;;;;;;16.50;49.41;100315.13;4962584;28;1507;-45
2023/01/20 01:12:24;;;;;;;;;;;;;;;16.30;48.31;100310.56;4960532;28;1053;-51
2023/01/20 01:14:49;;;;;;;;;;;;;;;16.99;48.60;100310.69;4959640;28;1382;-53
2023/01/20 01:17:15;;;;;;;;;;;;;;;16.39;48.88;100303.41;4961534;28;1026;-56
2023/01/20 01:19:41;;;;;;;;;;;;;;;16.79;49.11;100308.88;4964480;28;1093;-55
2023/01/20 01:22:06;;;;;;;;;;;;;;;16.74;49.35;100294.09;4960058;28;1073;-54
2023/01/20 01:24:31;;;;;;;;;;;;;;;16.31;48.90;100296.56;4960230;28;1158;-55
2023/01/20 01:26:57;;;;;;;;;;;;;;;16.30;48.92;100302.34;4960049;28;1919;-53
2023/01/20 01:29:22;;;;;;;;;;;;;;;16.85;48.79;100305.00;4959541;28;1010;-51
2023/01/20 01:31:48;;;;;;;;;;;;;;;16.48;48.44;100306.34;4965687;28;2500;-52
2023/01/20 01:34:14;;;;;;;;;;;;;;;16.18;48.03;100302.69;4964013;28;1041;-54
2023/01/20 01:36:39;;;;;;;;;;;;;;;17.03;48.69;100293.34;4959632;28;1038;-54
2023/01/20 01:39:05;;;;;;;;;;;;;;;16.46;48.86;100297.59;4959677;28;1112;-47
2023/01/20 01:41:30;;;;;;;;;;;;;;;18.02;47.84;100293.97;4961573;28;1058;-45
2023/01/20 01:44:03;;;;;;;;;;;;;;;17.07;49.61;100294.41;4964330;28;1156;-46
2023/01/20 01:46:28;;;;;;;;;;;;;;;16.68;49.08;100288.94;4958805;28;1980;-45
2023/01/20 01:48:54;;;;;;;;;;;;;;;16.51;48.20;100289.31;4959537;28;1070;-47
2023/01/20 01:51:20;;;;;;;;;;;;;;;16.28;47.52;100285.34;4959486;28;1015;-46
2023/01/20 01:53:47;;;;;;;;;;;;;;;17.20;48.94;100272.88;4960226;28;1034;-45
2023/01/20 01:56:12;;;;;;;;;;;;;;;16.47;49.39;100280.03;4959193;28;1089;-46
2023/01/20 01:58:38;;;;;;;;;;;;;;;16.29;48.28;100274.09;4958943;28;1192;-45
2023/01/20 02:01:03;;;;;;;;;;;;;;;17.27;48.58;100267.84;4959186;28;1027;-47
2023/01/20 02:03:32;;;;;;;;;;;;;;;16.51;49.15;100284.66;4955218;28;939;-43
2023/01/20 02:05:57;;;;;;;;;;;;;;;16.31;48.35;100266.38;4946078;28;1967;-47
2023/01/20 02:08:23;;;;;;;;;;;;;;;17.16;48.57;100278.13;4962885;28;1089;-45
2023/01/20 02:10:48;;;;;;;;;;;;;;;16.64;49.31;100272.22;4961966;28;1133;-44
2023/01/20 02:13:14;;;;;;;;;;;;;;;16.24;48.52;100269.47;4958747;28;1073;-43
2023/01/20 02:15:41;;;;;;;;;;;;;;;17.41;48.41;100277.03;4941968;29;1059;-44
2023/01/20 02:18:21;;;;;;;;;;;;;;;16.47;49.20;100261.63;4944256;28;1026;-47
2023/01/20 02:20:47;;;;;;;;;;;;;;;16.25;48.37;100262.06;4941617;29;1122;-47
2023/01/20 02:23:26;;;;;;;;;;;;;;;17.45;48.46;100269.03;4959327;28;1018;-41
2023/01/20 02:25:52;;;;;;;;;;;;;;;16.51;49.08;100265.44;4941750;29;1899;-43
2023/01/20 02:28:40;;;;;;;;;;;;;;;17.23;48.88;100253.84;4958495;28;1022;-42
2023/01/20 02:31:11;;;;;;;;;;;;;;;16.92;49.37;100267.09;4939583;28;2360;-46
2023/01/20 02:33:41;;;;;;;;;;;;;;;16.53;48.89;100254.19;4950993;29;1086;-43
2023/01/20 02:36:11;;;;;;;;;;;;;;;16.37;48.40;100268.00;4941379;29;1062;-46
2023/01/20 02:38:36;;;;;;;;;;;;;;;16.98;49.36;100271.41;4941580;29;1105;-45
2023/01/20 02:41:05;;;;;;;;;;;;;;;16.40;49.22;100264.69;4962998;28;1030;-46
2023/01/20 02:43:34;;;;;;;;;;;;;;;16.29;48.14;100263.13;4963046;28;894;-43
2023/01/20 02:46:06;;;;;;;;;;;;;;;17.40;48.63;100263.59;4958877;28;1975;-43
2023/01/20 02:48:33;;;;;;;;;;;;;;;16.57;49.22;100244.28;4941744;29;1121;-44
2023/01/20 02:51:02;;;;;;;;;;;;;;;16.38;49.36;100255.09;4958377;28;1160;-42
2023/01/20 02:53:29;;;;;;;;;;;;;;;16.87;49.41;100253.34;4958180;28;1114;-44
2023/01/20 02:55:54;;;;;;;;;;;;;;;16.42;48.79;100248.78;4950469;29;957;-48
2023/01/20 02:58:20;;;;;;;;;;;;;;;16.28;49.13;100250.50;4940739;28;1038;-45
2023/01/20 03:00:50;;;;;;;;;;;;;;;17.00;49.02;100247.22;4958250;28;1010;-46
2023/01/20 03:03:17;;;;;;;;;;;;;;;16.35;49.30;100247.44;4944704;28;2633;-41
2023/01/20 03:05:44;;;;;;;;;;;;;;;16.68;49.06;100240.34;4957529;28;1887;-46
2023/01/20 03:08:10;;;;;;;;;;;;;;;16.84;49.26;100253.94;4944465;28;952;-43
2023/01/20 03:10:35;;;;;;;;;;;;;;;16.50;48.92;100249.28;4942678;29;1232;-48
2023/01/20 03:13:12;;;;;;;;;;;;;;;16.39;48.57;100252.06;4940945;28;1022;-46
2023/01/20 03:15:50;;;;;;;;;;;;;;;17.17;48.96;100245.97;4958103;28;1090;-49
2023/01/20 03:18:15;;;;;;;;;;;;;;;16.57;49.01;100238.78;4957622;28;1189;-46
2023/01/20 03:20:41;;;;;;;;;;;;;;;16.30;48.42;100248.31;4972435;28;1153;-44
2023/01/20 03:23:06;;;;;;;;;;;;;;;16.20;47.92;100248.34;4940634;29;1090;-44
2023/01/20 03:25:32;;;;;;;;;;;;;;;17.14;48.55;100247.38;4957741;28;1911;-46
2023/01/20 03:27:57;;;;;;;;;;;;;;;16.48;48.71;100240.50;4940692;29;1081;-47
2023/01/20 03:30:24;;;;;;;;;;;;;;;16.21;48.34;100226.13;4942978;28;1161;-45
2023/01/20 03:32:49;;;;;;;;;;;;;;;17.17;48.28;100229.50;4970503;28;2249;-46
2023/01/20 03:35:15;;;;;;;;;;;;;;;16.28;49.17;100236.78;4957537;28;1085;-48
2023/01/20 03:37:41;;;;;;;;;;;;;;;18.11;48.11;100236.34;4940183;29;1098;-44
2023/01/20 03:40:07;;;;;;;;;;;;;;;17.38;49.68;100233.66;4957848;28;1438;-49
2023/01/20 03:42:34;;;;;;;;;;;;;;;16.83;49.56;100222.09;4943272;28;1069;-50
2023/01/20 03:45:02;;;;;;;;;;;;;;;16.63;48.44;100225.84;4981012;28;1297;-49
2023/01/20 03:47:33;;;;;;;;;;;;;;;16.40;48.07;100219.97;4963497;28;1907;-48
2023/01/20 03:50:04;;;;;;;;;;;;;;;17.22;48.74;100210.19;4940396;29;1129;-49
2023/01/20 03:52:32;;;;;;;;;;;;;;;16.63;49.25;100218.41;4969646;28;1085;-49
2023/01/20 03:54:58;;;;;;;;;;;;;;;16.35;48.86;100218.06;4945966;28;1104;-49
2023/01/20 03:57:25;;;;;;;;;;;;;;;16.24;48.11;100233.81;4957878;28;1140;-50
2023/01/20 03:59:50;;;;;;;;;;;;;;;16.87;48.60;100232.22;4957806;28;1149;-50
2023/01/20 04:02:16;;;;;;;;;;;;;;;16.69;49.24;100235.66;4957702;28;2418;-50
2023/01/20 04:04:42;;;;;;;;;;;;;;;16.32;49.00;100234.31;4963485;28;1197;-48
2023/01/20 04:07:08;;;;;;;;;;;;;;;17.15;49.04;100243.50;4957144;28;1906;-44
2023/01/20 04:09:34;;;;;;;;;;;;;;;16.58;49.42;100246.72;4942550;29;1157;-50
2023/01/20 04:12:00;;;;;;;;;;;;;;;16.34;48.72;100249.38;4944341;29;1146;-47
2023/01/20 04:14:25;;;;;;;;;;;;;;;17.31;48.69;100246.13;4961427;28;1172;-49
2023/01/20 04:16:55;;;;;;;;;;;;;;;16.58;49.25;100243.19;4961474;28;1181;-50
2023/01/20 04:19:21;;;;;;;;;;;;;;;16.32;48.79;100254.31;4967895;28;1102;-46
2023/01/20 04:21:55;;;;;;;;;;;;;;;16.24;48.06;100257.66;4960835;28;1030;-47
2023/01/20 04:24:23;;;;;;;;;;;;;;;17.41;46.78;100265.22;4944205;28;1050;-48
2023/01/20 04:26:48;;;;;;;;;;;;;;;16.75;51.77;100251.81;4960919;28;1902;-44
2023/01/20 04:29:13;;;;;;;;;;;;;;;16.90;51.08;100263.78;4960765;28;1157;-48
2023/01/20 04:31:39;;;;;;;;;;;;;;;16.47;50.38;100271.81;4967284;28;2332;-47
2023/01/20 04:34:04;;;;;;;;;;;;;;;17.94;49.93;100269.84;4966259;28;1061;-49
2023/01/20 04:36:30;;;;;;;;;;;;;;;16.90;51.07;100270.13;4959960;28;1113;-41
2023/01/20 04:38:55;;;;;;;;;;;;;;;16.48;50.22;100267.94;4960830;28;1145;-47
2023/01/20 04:41:21;;;;;;;;;;;;;;;16.33;49.13;100272.44;4930948;29;1088;-44
2023/01/20 04:43:46;;;;;;;;;;;;;;;16.25;48.40;100267.53;4969734;28;1038;-48
2023/01/20 04:46:12;;;;;;;;;;;;;;;16.22;47.90;100271.66;4960949;28;1903;-47
2023/01/20 04:48:37;;;;;;;;;;;;;;;16.08;47.51;100262.44;4960190;28;1157;-51
2023/01/20 04:51:03;;;;;;;;;;;;;;;16.00;47.14;100272.06;4960720;28;1153;-53
2023/01/20 04:53:29;;;;;;;;;;;;;;;16.22;47.54;100265.38;4960730;28;1058;-52
2023/01/20 04:55:54;;;;;;;;;;;;;;;16.30;48.76;100267.50;4978178;28;1693;-46
2023/01/20 04:58:20;;;;;;;;;;;;;;;16.30;49.18;100262.03;4959911;28;1034;-44
2023/01/20 05:00:45;;;;;;;;;;;;;;;17.53;49.75;100270.31;4960065;28;1002;-47
2023/01/20 05:03:11;;;;;;;;;;;;;;;16.53;50.71;100271.47;4963134;28;2510;-46
2023/01/20 05:05:36;;;;;;;;;;;;;;;16.21;49.62;100275.50;4959584;28;1949;-45
2023/01/20 05:08:03;;;;;;;;;;;;;;;16.10;48.91;100279.41;4969747;28;1063;-46
2023/01/20 05:10:30;;;;;;;;;;;;;;;15.98;48.31;100274.28;4960094;28;1087;-54
2023/01/20 05:12:55;;;;;;;;;;;;;;;16.91;48.95;100280.00;4960004;28;1090;-51
2023/01/20 05:15:21;;;;;;;;;;;;;;;16.29;49.87;100270.53;4960187;28;1149;-49
2023/01/20 05:17:46;;;;;;;;;;;;;;;16.07;49.12;100272.59;4942749;29;1114;-53
2023/01/20 05:20:13;;;;;;;;;;;;;;;15.88;48.28;100280.63;4963442;28;1049;-51
2023/01/20 05:22:38;;;;;;;;;;;;;;;16.71;48.88;100275.44;4959629;28;1108;-47
2023/01/20 05:25:04;;;;;;;;;;;;;;;16.15;49.19;100265.69;4960410;28;1165;-48
2023/01/20 05:27:29;;;;;;;;;;;;;;;17.71;49.10;100269.56;4959018;28;1992;-47
2023/01/20 05:29:54;;;;;;;;;;;;;;;16.98;50.73;100276.91;4959831;28;1121;-52
2023/01/20 05:32:20;;;;;;;;;;;;;;;16.41;50.13;100277.31;4970285;28;1828;-47
2023/01/20 05:34:45;;;;;;;;;;;;;;;16.24;49.33;100268.63;4960513;28;1041;-48
2023/01/20 05:37:11;;;;;;;;;;;;;;;16.10;48.35;100281.34;4959210;28;1165;-50
2023/01/20 05:39:36;;;;;;;;;;;;;;;16.84;49.55;100286.88;4965082;28;1152;-48
2023/01/20 05:42:02;;;;;;;;;;;;;;;16.21;49.98;100274.69;4967097;28;1041;-46
2023/01/20 05:44:27;;;;;;;;;;;;;;;16.09;48.92;100280.53;4958989;28;1176;-49
2023/01/20 05:46:53;;;;;;;;;;;;;;;15.96;48.30;100268.22;4971609;28;1906;-48
2023/01/20 05:49:18;;;;;;;;;;;;;;;15.84;47.90;100268.56;4978431;28;1434;-53
2023/01/20 05:51:43;;;;;;;;;;;;;;;15.78;47.57;100277.06;4979131;28;1065;-50
2023/01/20 05:54:09;;;;;;;;;;;;;;;15.95;48.17;100268.50;4973387;28;1054;-57
2023/01/20 05:56:34;;;;;;;;;;;;;;;16.31;49.11;100274.63;4971375;28;1181;-50
2023/01/20 05:59:00;;;;;;;;;;;;;;;15.90;48.85;100280.34;4966114;28;1137;-52
2023/01/20 06:01:26;;;;;;;;;;;;;;;17.16;48.61;100285.53;4975742;28;1947;-53
2023/01/20 06:03:51;;;;;;;;;;;;;;;16.21;49.81;100280.19;4977972;28;991;-53
2023/01/20 06:06:17;;;;;;;;;;;;;;;17.12;49.59;100287.22;4978581;28;1981;-52
2023/01/20 06:08:43;;;;;;;;;;;;;;;17.10;50.15;100291.06;4959084;28;993;-55
2023/01/20 06:11:09;;;;;;;;;;;;;;;16.37;50.47;100292.72;4966583;28;1080;-54
2023/01/20 06:13:34;;;;;;;;;;;;;;;16.15;49.37;100286.81;4977275;28;1157;-51
2023/01/20 06:16:00;;;;;;;;;;;;;;;15.99;48.68;100286.88;4970653;28;1105;-50
2023/01/20 06:18:25;;;;;;;;;;;;;;;15.94;47.90;100295.13;4968847;28;1130;-55
2023/01/20 06:20:50;;;;;;;;;;;;;;;16.63;47.28;100308.19;4965383;28;1193;-53
2023/01/20 06:23:16;;;;;;;;;;;;;;;16.67;47.34;100290.84;4970604;28;1137;-53
2023/01/20 06:25:42;;;;;;;;;;;;;;;16.32;48.76;100289.19;4963110;28;1910;-50
2023/01/20 06:28:08;;;;;;;;;;;;;;;16.16;49.18;100300.25;4957659;28;1044;-52
2023/01/20 06:30:33;;;;;;;;;;;;;;;16.04;49.97;100286.84;4957854;28;1185;-47
2023/01/20 06:32:59;;;;;;;;;;;;;;;15.88;50.49;100296.25;4960859;28;1841;-47
2023/01/20 06:35:24;;;;;;;;;;;;;;;15.76;50.89;100298.47;4978044;28;1054;-50
2023/01/20 06:37:50;;;;;;;;;;;;;;;15.70;51.13;100293.00;4971198;28;1049;-48
2023/01/20 06:40:16;;;;;;;;;;;;;;;15.55;51.64;100295.78;4976850;28;1078;-49
2023/01/20 06:42:41;;;;;;;;;;;;;;;15.50;52.04;100287.56;4973442;28;1006;-49
2023/01/20 06:45:07;;;;;;;;;;;;;;;15.39;52.21;100286.78;4977015;28;1074;-49
2023/01/20 06:47:33;;;;;;;;;;;;;;;15.33;52.75;100288.72;4976916;28;1915;-48
2023/01/20 06:49:58;;;;;;;;;;;;;;;16.95;48.59;100282.97;4960452;28;1137;-48
2023/01/20 06:52:24;;;;;;;;;;;;;;;16.39;49.99;100282.25;4954861;28;1150;-49
2023/01/20 06:54:49;;;;;;;;;;;;;;;15.86;51.67;100277.31;4971528;28;998;-50
2023/01/20 06:57:15;;;;;;;;;;;;;;;15.65;52.08;100282.03;4956961;28;1125;-45
2023/01/20 06:59:40;;;;;;;;;;;;;;;15.53;52.46;100281.56;4964888;28;1018;-51
2023/01/20 07:02:07;;;;;;;;;;;;;;;15.44;52.89;100266.78;4962467;28;1849;-52
2023/01/20 07:04:33;;;;;;;;;;;;;;;16.89;49.50;100267.66;4951805;28;979;-47
2023/01/20 07:06:58;;;;;;;;;;;;;;;16.41;50.60;100260.03;4962918;28;1914;-51
2023/01/20 07:09:25;;;;;;;;;;;;;;;15.93;51.81;100259.78;4947614;29;1135;-53
2023/01/20 07:11:50;;;;;;;;;;;;;;;15.72;52.50;100263.41;4957239;28;1042;-53
2023/01/20 07:14:16;;;;;;;;;;;;;;;15.56;52.87;100262.63;4970579;28;1075;-51
2023/01/20 07:16:41;;;;;;;;;;;;;;;15.44;53.41;100262.09;4968536;28;1014;-53
2023/01/20 07:19:06;;;;;;;;;;;;;;;15.39;53.71;100270.34;4971719;28;1129;-51
2023/01/20 07:21:32;;;;;;;;;;;;;;;17.05;49.49;100277.38;4967759;28;971;-50
2023/01/20 07:24:00;;;;;;;;;;;;;;;16.36;51.24;100271.03;4971162;28;1132;-51
2023/01/20 07:26:26;;;;;;;;;;;;;;;15.82;52.53;100264.47;4972766;28;1965;-52
2023/01/20 07:28:51;;;;;;;;;;;;;;;15.64;53.32;100269.47;4957519;29;1158;-50
2023/01/20 07:31:23;;;;;;;;;;;;;;;15.49;53.76;100262.09;4972605;28;1792;-54
2023/01/20 07:33:49;;;;;;;;;;;;;;;16.85;50.38;100267.38;4968964;28;957;-51
2023/01/20 07:36:15;;;;;;;;;;;;;;;16.71;50.46;100264.47;4964253;28;1225;-53
2023/01/20 07:38:40;;;;;;;;;;;;;;;16.02;52.36;100261.63;4977218;28;1081;-52
2023/01/20 07:41:07;;;;;;;;;;;;;;;15.81;53.03;100255.44;4972535;28;1098;-51
2023/01/20 07:43:32;;;;;;;;;;;;;;;15.62;53.46;100257.94;4968492;28;1087;-53
2023/01/20 07:45:58;;;;;;;;;;;;;;;15.54;53.69;100261.25;4967433;28;1910;-51
2023/01/20 07:48:24;;;;;;;;;;;;;;;15.97;53.08;100263.59;4991656;28;1033;-50
2023/01/20 07:51:04;;;;;;;;;;;;;;;17.07;49.92;100271.63;4963944;28;1070;-50
2023/01/20 07:53:32;;;;;;;;;;;;;;;16.11;52.60;100261.06;4976279;28;1005;-49
2023/01/20 07:56:21;;;;;;;;;;;;;;;15.74;53.29;100255.69;4951603;28;1064;-53
2023/01/20 07:58:49;;;;;;;;;;;;;;;15.58;53.98;100267.81;4963056;28;1689;-51
2023/01/20 08:01:21;;;;;;;;;;;;;;;15.44;54.31;100248.41;4958910;28;1942;-53
2023/01/20 08:03:47;;;;;;;;;;;;;;;16.54;51.72;100264.88;4966177;28;991;-50
2023/01/20 08:06:13;;;;;;;;;;;;;;;16.70;50.91;100253.78;4964751;28;1994;-53
2023/01/20 08:08:39;;;;;;;;;;;;;;;15.94;53.28;100253.19;4962577;28;960;-49
2023/01/20 08:11:04;;;;;;;;;;;;;;;15.69;53.69;100252.16;4945474;28;1098;-47
2023/01/20 08:13:30;;;;;;;;;;;;;;;15.56;54.09;100250.84;4957169;29;1304;-53
2023/01/20 08:15:58;;;;;;;;;;;;;;;15.47;54.38;100249.78;4967708;28;1102;-50
2023/01/20 08:18:23;;;;;;;;;;;;;;;16.55;51.90;100258.28;4990975;28;1325;-53
2023/01/20 08:20:49;;;;;;;;;;;;;;;16.95;50.67;100247.28;4969552;28;994;-57
2023/01/20 08:23:15;;;;;;;;;;;;;;;16.06;53.07;100245.41;4971811;28;1096;-54
2023/01/20 08:25:40;;;;;;;;;;;;;;;15.78;53.72;100255.13;4957740;28;1898;-43
2023/01/20 08:28:06;;;;;;;;;;;;;;;15.60;54.18;100245.59;4974184;28;1046;-52
2023/01/20 08:30:31;;;;;;;;;;;;;;;15.46;54.51;100254.44;4968067;28;1056;-50
2023/01/20 08:32:56;;;;;;;;;;;;;;;16.05;53.46;100255.59;4959298;28;1835;-52
2023/01/20 08:35:22;;;;;;;;;;;;;;;17.23;50.05;100250.31;4962229;28;1193;-50
2023/01/20 08:37:47;;;;;;;;;;;;;;;16.21;52.76;100250.00;4963753;28;1065;-56
2023/01/20 08:40:13;;;;;;;;;;;;;;;15.81;53.74;100255.44;4957174;28;1221;-57
2023/01/20 08:42:39;;;;;;;;;;;;;;;15.67;54.06;100257.94;4956737;29;1249;-54
2023/01/20 08:45:05;;;;;;;;;;;;;;;15.66;54.42;100253.53;4956606;28;1257;-54
2023/01/20 08:47:30;;;;;;;;;;;;;;;17.33;50.22;100247.44;4955943;29;1968;-53
2023/01/20 08:49:56;;;;;;;;;;;;;;;16.40;52.12;100248.22;4956452;29;1185;-54
2023/01/20 08:52:21;;;;;;;;;;;;;;;15.93;53.64;100235.91;4956692;29;1296;-53
2023/01/20 08:54:50;;;;;;;;;;;;;;;15.69;54.46;100241.19;4956960;28;1189;-52
2023/01/20 08:57:15;;;;;;;;;;;;;;;15.58;54.60;100223.97;4942658;29;1241;-52
2023/01/20 08:59:41;;;;;;;;;;;;;;;15.93;54.10;100218.63;4960350;29;1221;-51
2023/01/20 09:02:08;;;;;;;;;;;;;;;17.28;50.18;100220.03;4959346;29;1936;-57
2023/01/20 09:04:34;;;;;;;;;;;;;;;16.25;53.00;100224.44;4960496;29;1221;-54
2023/01/20 09:07:00;;;;;;;;;;;;;;;15.85;54.11;100225.50;4959715;29;1921;-53
2023/01/20 09:09:25;;;;;;;;;;;;;;;15.67;54.30;100216.81;4960314;28;1234;-53
2023/01/20 09:11:51;;;;;;;;;;;;;;;15.55;54.46;100208.09;4959547;29;1233;-58
2023/01/20 09:14:17;;;;;;;;;;;;;;;17.01;51.37;100204.94;4959739;29;1166;-58
2023/01/20 09:16:42;;;;;;;;;;;;;;;16.48;52.55;100207.56;4978826;28;1114;-50
2023/01/20 09:19:08;;;;;;;;;;;;;;;15.99;53.52;100204.63;4979217;28;1200;-53
2023/01/20 09:21:33;;;;;;;;;;;;;;;15.76;54.45;100202.53;4971718;28;1119;-53
2023/01/20 09:23:59;;;;;;;;;;;;;;;15.64;54.73;100211.91;4969304;28;1173;-49
2023/01/20 09:26:24;;;;;;;;;;;;;;;15.63;54.76;100190.25;4965127;28;1915;-51
2023/01/20 09:28:50;;;;;;;;;;;;;;;17.24;50.46;100186.81;4968513;28;1069;-54
2023/01/20 09:31:15;;;;;;;;;;;;;;;16.28;52.81;100181.91;4959218;28;1838;-50
2023/01/20 09:33:42;;;;;;;;;;;;;;;15.86;53.84;100180.56;4959375;28;1249;-53
2023/01/20 09:36:08;;;;;;;;;;;;;;;15.67;54.46;100180.34;4957216;28;1074;-52
2023/01/20 09:44:55;;;;;;;;;;;;;;;16.38;52.49;100176.38;4972118;28;1010;-52
2023/01/20 09:47:23;;;;;;;;;;;;;;;15.82;54.03;100169.34;4917854;29;1910;-51
2023/01/20 09:55:51;;;;;;;;;;;;;;;16.20;53.66;100157.84;4967726;28;982;-56
2023/01/20 09:58:46;;;;;;;;;;;;;;;16.96;51.03;100146.47;4955989;28;1170;-52
2023/01/20 10:01:17;;;;;;;;;;;;;;;16.03;53.56;100150.84;4965793;28;1923;-54
2023/01/20 10:03:51;;;;;;;;;;;;;;;15.76;54.46;100148.50;4959499;29;1022;-52
2023/01/20 10:06:19;;;;;;;;;;;;;;;15.62;54.60;100140.09;4977309;28;1969;-48
2023/01/20 10:08:51;;;;;;;;;;;;;;;15.59;54.66;100137.91;4980572;28;1420;-53
2023/01/20 10:11:17;;;;;;;;;;;;;;;17.34;50.52;100110.88;4964145;28;940;-50
2023/01/20 10:13:50;;;;;;;;;;;;;;;16.41;52.82;100103.59;4965472;28;1109;-50
2023/01/20 10:16:32;;;;;;;;;;;;;;;15.94;54.13;100105.94;4978108;28;1218;-51
2023/01/20 10:19:01;;;;;;;;;;;;;;;15.70;54.46;100098.38;4964963;28;1207;-51
2023/01/20 10:21:30;;;;;;;;;;;;;;;15.60;54.82;100084.75;4966703;28;1180;-50
2023/01/20 10:23:56;;;;;;;;;;;;;;;16.40;53.18;100091.81;4959635;28;1241;-59
2023/01/20 10:26:25;;;;;;;;;;;;;;;16.98;51.17;100079.16;4952044;28;1902;-60
2023/01/20 10:28:52;;;;;;;;;;;;;;;16.12;53.68;100074.25;4967018;28;1177;-61
2023/01/20 10:31:19;;;;;;;;;;;;;;;15.84;54.07;100084.09;4975988;28;1813;-59
2023/01/20 10:33:45;;;;;;;;;;;;;;;15.68;54.64;100084.16;4964964;28;1150;-58
2023/01/20 10:36:29;;;;;;;;;;;;;;;15.66;54.60;100082.81;4973010;28;1055;-55
2023/01/20 10:39:04;;;;;;;;;;;;;;;17.25;50.65;100061.22;4956618;28;1230;-55
2023/01/20 10:41:29;;;;;;;;;;;;;;;16.23;53.16;100072.25;4940536;29;1054;-57
2023/01/20 10:43:55;;;;;;;;;;;;;;;15.88;54.32;100052.25;4959652;28;1114;-55
2023/01/20 10:46:24;;;;;;;;;;;;;;;15.71;54.53;100037.00;4940494;29;1975;-60
2023/01/20 10:49:06;;;;;;;;;;;;;;;15.55;54.94;100039.00;4957757;29;1087;-56
2023/01/20 10:51:31;;;;;;;;;;;;;;;16.61;52.46;100031.25;4940903;29;1071;-56
2023/01/20 10:54:15;;;;;;;;;;;;;;;16.89;51.71;100021.31;4957557;28;1217;-57
2023/01/20 10:56:52;;;;;;;;;;;;;;;16.01;53.97;100018.66;4961547;28;1297;-56
2023/01/20 10:59:28;;;;;;;;;;;;;;;15.78;54.53;100022.13;4976623;28;851;-51
2023/01/20 11:01:53;;;;;;;;;;;;;;;15.64;54.75;100006.34;4981462;28;1894;-58
2023/01/20 11:04:19;;;;;;;;;;;;;;;15.53;54.96;100013.00;4969753;28;1220;-56
2023/01/20 11:06:46;;;;;;;;;;;;;;;16.24;53.42;99995.16;4970758;28;1914;-58
2023/01/20 11:09:36;;;;;;;;;;;;;;;17.26;50.70;99985.94;4970573;28;1043;-54
2023/01/20 11:12:03;;;;;;;;;;;;;;;16.16;53.60;99986.72;4946158;29;1147;-57
2023/01/20 11:14:28;;;;;;;;;;;;;;;15.84;54.53;99990.88;4952813;28;1204;-53
2023/01/20 11:16:56;;;;;;;;;;;;;;;15.69;54.56;99995.31;4967907;28;998;-58
2023/01/20 11:19:21;;;;;;;;;;;;;;;16.84;52.15;99976.59;4970017;28;1291;-55
2023/01/20 11:21:47;;;;;;;;;;;;;;;16.73;51.92;99976.75;4957032;28;1178;-54
2023/01/20 11:24:24;;;;;;;;;;;;;;;16.11;53.70;99959.34;4959084;28;1261;-59
2023/01/20 11:26:50;;;;;;;;;;;;;;;15.85;54.57;99963.16;4955466;29;1965;-53
2023/01/20 11:29:15;;;;;;;;;;;;;;;15.67;54.68;99972.03;4957013;29;1186;-53
2023/01/20 11:31:42;;;;;;;;;;;;;;;15.58;54.74;99971.84;4957842;28;1960;-56
2023/01/20 11:34:20;;;;;;;;;;;;;;;17.04;51.35;99968.13;4938836;28;1245;-59
2023/01/20 11:36:46;;;;;;;;;;;;;;;16.47;52.83;99958.97;4955010;29;1163;-53
2023/01/20 11:39:27;;;;;;;;;;;;;;;15.99;54.05;99966.06;4956683;28;1253;-57
2023/01/20 11:42:08;;;;;;;;;;;;;;;15.76;54.46;99961.31;4939428;29;1226;-55
2023/01/20 11:44:40;;;;;;;;;;;;;;;15.62;54.91;99961.16;4956350;29;1190;-54
2023/01/20 11:47:15;;;;;;;;;;;;;;;15.51;55.09;99960.41;4954977;28;1969;-53
2023/01/20 11:49:40;;;;;;;;;;;;;;;17.13;51.32;99960.03;4957102;29;1222;-55
2023/01/20 11:52:06;;;;;;;;;;;;;;;16.52;52.82;99962.47;4956986;29;1245;-55
2023/01/20 11:54:32;;;;;;;;;;;;;;;15.99;54.13;99949.59;4939483;29;1330;-52
2023/01/20 11:57:03;;;;;;;;;;;;;;;15.74;54.87;99956.91;4957279;29;1205;-56
2023/01/20 11:59:33;;;;;;;;;;;;;;;15.63;54.97;99949.09;4940179;29;1198;-56
2023/01/20 12:02:00;;;;;;;;;;;;;;;15.49;55.17;99951.66;4956862;28;1964;-56
2023/01/20 12:04:44;;;;;;;;;;;;;;;16.51;53.15;99952.59;4956815;29;1238;-55
2023/01/20 12:07:25;;;;;;;;;;;;;;;16.91;51.81;99957.88;4956194;29;1977;-56
2023/01/20 12:09:52;;;;;;;;;;;;;;;16.08;53.72;99947.84;4955218;29;1131;-56
2023/01/20 12:12:23;;;;;;;;;;;;;;;15.83;54.52;99937.16;4956611;28;1158;-56
2023/01/20 12:14:54;;;;;;;;;;;;;;;17.20;51.26;99926.69;4956382;29;1182;-61
2023/01/20 12:17:21;;;;;;;;;;;;;;;16.55;52.61;99939.91;4956072;29;1154;-58
2023/01/20 12:19:57;;;;;;;;;;;;;;;16.07;53.62;99924.28;4938275;29;1348;-58
2023/01/20 12:22:24;;;;;;;;;;;;;;;15.84;54.55;99923.16;4938852;28;1148;-59
2023/01/20 12:25:08;;;;;;;;;;;;;;;15.71;54.64;99927.34;4957118;29;1146;-56
2023/01/20 12:27:34;;;;;;;;;;;;;;;15.54;55.16;99930.53;4956034;29;1910;-57
2023/01/20 12:30:02;;;;;;;;;;;;;;;15.45;55.41;99923.22;4954135;28;1115;-57
2023/01/20 12:32:28;;;;;;;;;;;;;;;17.00;51.70;99906.66;4943016;29;1814;-55
2023/01/20 12:34:53;;;;;;;;;;;;;;;16.54;52.66;99912.78;4960441;28;1209;-57
2023/01/20 12:37:21;;;;;;;;;;;;;;;15.97;54.35;99913.41;4960111;29;1150;-58
2023/01/20 12:39:53;;;;;;;;;;;;;;;15.74;54.88;99921.28;4960313;29;1174;-58
2023/01/20 12:42:57;;;;;;;;;;;;;;;15.60;54.98;99925.81;4960091;29;1205;-57
2023/01/20 12:45:26;;;;;;;;;;;;;;;16.69;52.52;99911.72;4882190;29;1504;-57
2023/01/20 12:47:54;;;;;;;;;;;;;;;16.95;51.45;99919.66;4882200;29;1910;-56
2023/01/20 12:50:26;;;;;;;;;;;;;;;16.16;53.95;99918.13;4920250;29;1286;-55
2023/01/20 12:52:54;;;;;;;;;;;;;;;15.83;54.44;99926.97;4943343;29;1238;-53
2023/01/20 12:55:23;;;;;;;;;;;;;;;15.63;54.81;99930.72;4958050;29;1198;-54
2023/01/20 12:57:54;;;;;;;;;;;;;;;15.50;55.22;99909.44;4978912;28;1106;-51
2023/01/20 13:00:39;;;;;;;;;;;;;;;16.39;53.44;99914.56;4960055;28;948;-52
2023/01/20 13:03:19;;;;;;;;;;;;;;;16.80;51.80;99913.22;4956910;29;1947;-51